createdAt,value
2017-08-17T00:01:31.400Z,51.60
2017-08-17T00:03:59.926Z,42.20
2017-08-17T00:06:28.138Z,41.27
2017-08-17T00:08:56.590Z,53.20
2017-08-17T00:11:26.146Z,33.70
2017-08-17T00:13:54.810Z,47.27
2017-08-17T00:16:23.329Z,38.93
2017-08-17T00:18:51.874Z,33.40
2017-08-17T00:21:20.358Z,48.37
2017-08-17T00:23:48.778Z,49.03
2017-08-17T00:26:17.462Z,32.43
2017-08-17T00:28:46.315Z,41.17
2017-08-17T00:31:14.670Z,44.80
2017-08-17T00:33:43.218Z,36.10
2017-08-17T00:36:12.072Z,54.23
2017-08-17T00:38:40.122Z,49.93
2017-08-17T00:41:09.318Z,53.47
2017-08-17T00:43:37.458Z,52.37
2017-08-17T00:46:05.986Z,49.70
2017-08-17T00:48:35.432Z,43.07
2017-08-17T00:51:04.033Z,68.33
2017-08-17T00:53:32.622Z,54.80
2017-08-17T00:56:01.430Z,60.97
2017-08-17T00:58:30.098Z,52.97
2017-08-17T01:00:58.587Z,38.53
2017-08-17T01:03:27.082Z,54.00
2017-08-17T01:05:55.914Z,41.97
2017-08-17T01:08:24.526Z,58.27
2017-08-17T01:10:53.018Z,48.50
2017-08-17T01:13:21.807Z,59.50
2017-08-17T01:15:50.451Z,73.33
2017-08-17T01:18:18.855Z,57.57
2017-08-17T01:20:47.826Z,60.43
2017-08-17T01:23:16.559Z,68.07
2017-08-17T01:25:45.446Z,83.03
2017-08-17T01:28:15.330Z,98.77
2017-08-17T01:30:43.978Z,69.57
2017-08-17T01:33:13.315Z,76.07
2017-08-17T01:35:43.174Z,84.77
2017-08-17T01:38:14.158Z,57.87
2017-08-17T01:40:43.682Z,60.43
2017-08-17T01:43:12.631Z,74.20
2017-08-17T01:45:42.736Z,71.37
2017-08-17T01:48:11.010Z,79.23
2017-08-17T01:50:40.108Z,61.27
2017-08-17T01:53:08.631Z,59.97
2017-08-17T01:55:37.398Z,48.63
2017-08-17T01:58:06.325Z,51.53
2017-08-17T02:00:35.768Z,51.37
2017-08-17T02:03:06.386Z,72.93
2017-08-17T02:05:36.118Z,64.87
2017-08-17T02:08:05.007Z,47.57
2017-08-17T02:10:34.039Z,67.20
2017-08-17T02:13:04.675Z,38.80
2017-08-17T02:15:34.611Z,39.00
2017-08-17T02:18:05.171Z,43.10
2017-08-17T02:20:34.790Z,41.63
2017-08-17T02:23:05.946Z,50.37
2017-08-17T02:25:34.555Z,49.87
2017-08-17T02:28:03.418Z,52.50
2017-08-17T02:30:34.470Z,51.00
2017-08-17T02:33:04.284Z,38.67
2017-08-17T02:35:33.878Z,46.63
2017-08-17T02:38:02.966Z,38.60
2017-08-17T02:40:32.184Z,51.33
2017-08-17T02:43:01.531Z,50.00
2017-08-17T02:45:32.932Z,34.53
2017-08-17T02:48:02.299Z,34.77
2017-08-17T02:50:32.032Z,46.43
2017-08-17T02:53:00.899Z,49.27
2017-08-17T02:55:30.906Z,35.03
2017-08-17T02:58:02.454Z,39.90
2017-08-17T03:00:32.446Z,38.80
2017-08-17T03:03:02.930Z,34.10
2017-08-17T03:05:32.178Z,41.57
2017-08-17T03:08:01.803Z,46.90
2017-08-17T03:10:31.232Z,49.50
2017-08-17T03:13:00.231Z,33.77
2017-08-17T03:15:29.734Z,37.00
2017-08-17T03:18:00.230Z,43.77
2017-08-17T03:20:30.162Z,32.37
2017-08-17T03:22:58.747Z,27.07
2017-08-17T03:25:28.423Z,34.67
2017-08-17T03:27:58.983Z,35.57
2017-08-17T03:30:29.299Z,47.03
2017-08-17T03:32:58.082Z,35.90
2017-08-17T03:35:28.273Z,42.87
2017-08-17T03:37:58.226Z,52.17
2017-08-17T03:40:27.282Z,47.37
2017-08-17T03:42:57.346Z,43.73
2017-08-17T03:45:27.774Z,40.13
2017-08-17T03:47:57.546Z,41.20
2017-08-17T03:50:27.795Z,48.57
2017-08-17T03:53:00.410Z,50.10
2017-08-17T03:55:29.738Z,58.97
2017-08-17T03:58:01.146Z,76.97
2017-08-17T04:00:31.003Z,66.30
2017-08-17T04:03:00.934Z,91.77
2017-08-17T04:05:29.254Z,77.37
2017-08-17T04:08:02.486Z,99.40
2017-08-17T04:10:33.538Z,82.53
2017-08-17T04:13:05.186Z,84.53
2017-08-17T04:15:34.423Z,110.37
2017-08-17T04:18:03.166Z,127.73
2017-08-17T04:20:32.450Z,143.70
2017-08-17T04:23:01.915Z,158.13
2017-08-17T04:25:32.023Z,181.00
2017-08-17T04:28:02.282Z,99.63
2017-08-17T04:30:30.321Z,81.53
2017-08-17T04:33:00.202Z,121.57
2017-08-17T04:35:28.218Z,108.67
2017-08-17T04:37:58.690Z,103.50
2017-08-17T04:40:28.351Z,109.03
2017-08-17T04:42:59.548Z,116.33
2017-08-17T04:45:28.720Z,121.00
2017-08-17T04:47:58.498Z,130.40
2017-08-17T04:50:28.007Z,176.63
2017-08-17T04:52:57.547Z,106.83
2017-08-17T04:55:28.934Z,87.30
2017-08-17T04:58:25.282Z,115.20
2017-08-17T05:00:55.490Z,131.37
2017-08-17T05:03:27.310Z,101.77
2017-08-17T05:05:56.543Z,128.50
2017-08-17T05:08:26.302Z,96.97
2017-08-17T05:10:56.594Z,80.50
2017-08-17T05:13:24.798Z,95.67
2017-08-17T05:15:55.157Z,101.10
2017-08-17T05:18:23.754Z,91.20
2017-08-17T05:20:53.010Z,92.40
2017-08-17T05:23:22.283Z,99.87
2017-08-17T05:25:53.294Z,89.70
2017-08-17T05:28:22.022Z,95.10
2017-08-17T05:30:51.895Z,105.03
2017-08-17T05:33:21.738Z,87.40
2017-08-17T05:35:52.930Z,90.67
2017-08-17T05:38:21.514Z,84.57
2017-08-17T05:40:51.398Z,68.47
2017-08-17T05:43:21.246Z,84.53
2017-08-17T05:45:50.338Z,86.77
2017-08-17T05:48:19.976Z,77.70
2017-08-17T05:50:48.672Z,74.60
2017-08-17T05:53:18.575Z,73.13
2017-08-17T05:55:48.298Z,80.82
2017-08-17T05:58:18.798Z,80.05
2017-08-17T06:00:49.050Z,71.10
2017-08-17T06:03:18.115Z,85.53
2017-08-17T06:05:49.411Z,70.70
2017-08-17T06:08:19.384Z,97.97
2017-08-17T06:10:47.974Z,97.68
2017-08-17T06:13:16.959Z,92.77
2017-08-17T06:15:46.598Z,101.53
2017-08-17T06:18:15.290Z,94.10
2017-08-17T06:20:45.297Z,86.90
2017-08-17T06:23:16.131Z,100.83
2017-08-17T06:25:46.900Z,82.77
2017-08-17T06:28:17.111Z,73.83
2017-08-17T06:30:45.677Z,73.23
2017-08-17T06:33:15.143Z,81.00
2017-08-17T06:35:44.227Z,60.07
2017-08-17T06:38:14.175Z,69.17
2017-08-17T06:40:43.142Z,57.63
2017-08-17T06:43:13.742Z,62.43
2017-08-17T06:45:44.272Z,67.12
2017-08-17T06:48:14.831Z,62.42
2017-08-17T06:50:45.670Z,66.10
2017-08-17T06:53:14.424Z,57.45
2017-08-17T06:55:44.783Z,44.88
2017-08-17T06:58:13.814Z,51.08
2017-08-17T07:00:43.562Z,67.10
2017-08-17T07:03:12.682Z,48.22
2017-08-17T07:05:42.506Z,59.58
2017-08-17T07:08:12.059Z,43.55
2017-08-17T07:10:41.410Z,67.60
2017-08-17T07:13:10.538Z,42.33
2017-08-17T07:15:39.647Z,46.50
2017-08-17T07:18:09.367Z,47.77
2017-08-17T07:20:37.702Z,56.60
2017-08-17T07:23:06.222Z,60.30
2017-08-17T07:25:36.644Z,55.33
2017-08-17T07:28:04.977Z,78.20
2017-08-17T07:30:34.455Z,52.30
2017-08-17T07:33:04.227Z,55.97
2017-08-17T07:35:33.978Z,71.27
2017-08-17T07:38:03.734Z,51.23
2017-08-17T07:40:33.976Z,52.90
2017-08-17T07:43:03.814Z,51.73
2017-08-17T07:45:33.054Z,52.27
2017-08-17T07:48:02.992Z,54.27
2017-08-17T07:50:31.343Z,68.10
2017-08-17T07:53:01.270Z,54.40
2017-08-17T07:55:31.103Z,65.83
2017-08-17T07:58:00.636Z,70.20
2017-08-17T08:00:29.646Z,48.57
2017-08-17T08:02:59.347Z,51.28
2017-08-17T08:05:28.196Z,61.75
2017-08-17T08:07:57.453Z,52.47
2017-08-17T08:10:27.447Z,49.58
2017-08-17T08:12:58.714Z,64.10
2017-08-17T08:15:27.862Z,64.20
2017-08-17T08:17:58.074Z,53.67
2017-08-17T08:20:28.710Z,70.50
2017-08-17T08:22:58.050Z,49.43
2017-08-17T08:25:27.093Z,59.30
2017-08-17T08:27:56.350Z,46.97
2017-08-17T08:30:26.286Z,37.30
2017-08-17T08:32:55.549Z,60.20
2017-08-17T08:35:25.482Z,42.40
2017-08-17T08:37:55.951Z,53.00
2017-08-17T08:40:25.202Z,52.80
2017-08-17T08:42:54.785Z,51.00
2017-08-17T08:45:24.811Z,42.10
2017-08-17T08:47:53.507Z,46.83
2017-08-17T08:50:23.202Z,49.03
2017-08-17T08:52:52.782Z,62.37
2017-08-17T08:55:23.698Z,50.83
2017-08-17T08:57:54.338Z,52.67
2017-08-17T09:00:24.206Z,49.70
2017-08-17T09:02:54.894Z,49.43
2017-08-17T09:05:26.870Z,60.37
2017-08-17T09:07:56.498Z,42.50
2017-08-17T09:10:26.590Z,43.50
2017-08-17T09:12:55.866Z,43.43
2017-08-17T09:15:24.103Z,44.60
2017-08-17T09:17:53.198Z,48.00
2017-08-17T09:20:21.951Z,49.17
2017-08-17T09:22:51.927Z,52.83
2017-08-17T09:25:21.382Z,45.57
2017-08-17T09:27:50.854Z,53.67
2017-08-17T09:30:19.970Z,49.83
2017-08-17T09:32:48.970Z,59.83
2017-08-17T09:35:20.643Z,57.87
2017-08-17T09:37:49.194Z,66.10
2017-08-17T09:40:19.270Z,57.80
2017-08-17T09:42:47.954Z,49.97
2017-08-17T09:45:17.747Z,68.93
2017-08-17T09:47:46.581Z,65.93
2017-08-17T09:50:15.878Z,63.13
2017-08-17T09:52:48.499Z,64.00
2017-08-17T09:55:17.836Z,47.63
2017-08-17T09:57:47.067Z,61.57
2017-08-17T10:00:16.003Z,73.83
2017-08-17T10:02:46.000Z,64.00
2017-08-17T10:05:16.178Z,54.53
2017-08-17T10:07:45.667Z,53.33
2017-08-17T10:10:16.514Z,76.33
2017-08-17T10:12:47.392Z,59.07
2017-08-17T10:15:16.390Z,62.47
2017-08-17T10:17:46.423Z,58.40
2017-08-17T10:20:16.910Z,60.93
2017-08-17T10:22:45.810Z,52.20
2017-08-17T10:25:15.238Z,51.70
2017-08-17T10:27:44.182Z,50.93
2017-08-17T10:30:14.336Z,56.30
2017-08-17T10:32:43.046Z,56.73
2017-08-17T10:35:11.958Z,59.33
2017-08-17T10:37:40.155Z,63.60
2017-08-17T10:40:11.376Z,55.77
2017-08-17T10:42:40.135Z,50.13
2017-08-17T10:45:08.858Z,58.17
2017-08-17T10:47:37.566Z,49.00
2017-08-17T10:50:07.430Z,62.93
2017-08-17T10:52:36.735Z,52.63
2017-08-17T10:55:06.383Z,59.63
2017-08-17T10:57:36.251Z,58.90
2017-08-17T11:00:05.387Z,40.00
2017-08-17T11:02:34.483Z,55.60
2017-08-17T11:05:03.375Z,47.87
2017-08-17T11:07:32.939Z,56.10
2017-08-17T11:10:01.386Z,60.40
2017-08-17T11:12:31.014Z,54.50
2017-08-17T11:14:59.734Z,50.40
2017-08-17T11:17:28.833Z,64.37
2017-08-17T11:19:58.062Z,80.83
2017-08-17T11:22:28.354Z,59.90
2017-08-17T11:24:57.891Z,63.97
2017-08-17T11:27:28.367Z,50.97
2017-08-17T11:29:57.109Z,62.77
2017-08-17T11:32:27.818Z,59.87
2017-08-17T11:34:56.398Z,77.00
2017-08-17T11:37:25.390Z,61.43
2017-08-17T11:39:55.554Z,47.30
2017-08-17T11:42:25.227Z,53.33
2017-08-17T11:44:56.076Z,65.40
2017-08-17T11:47:26.230Z,53.40
2017-08-17T11:49:56.390Z,55.53
2017-08-17T11:52:26.794Z,51.80
2017-08-17T11:54:55.454Z,66.10
2017-08-17T11:57:25.574Z,66.53
2017-08-17T11:59:55.046Z,46.77
2017-08-17T12:02:25.042Z,38.27
2017-08-17T12:04:54.679Z,42.37
2017-08-17T12:07:23.984Z,49.43
2017-08-17T12:09:53.462Z,43.93
2017-08-17T12:12:22.811Z,44.97
2017-08-17T12:14:50.923Z,46.60
2017-08-17T12:17:20.067Z,39.33
2017-08-17T12:19:49.661Z,39.50
2017-08-17T12:22:18.532Z,52.63
2017-08-17T12:24:46.738Z,42.97
2017-08-17T12:27:15.806Z,39.77
2017-08-17T12:29:44.730Z,51.50
2017-08-17T12:32:15.145Z,46.37
2017-08-17T12:34:44.010Z,54.27
2017-08-17T12:37:13.194Z,44.40
2017-08-17T12:39:43.886Z,50.77
2017-08-17T12:42:12.801Z,38.53
2017-08-17T12:44:42.418Z,44.10
2017-08-17T12:47:12.768Z,47.20
2017-08-17T12:49:43.091Z,52.43
2017-08-17T12:52:12.475Z,43.67
2017-08-17T12:54:42.918Z,40.47
2017-08-17T12:57:12.669Z,45.33
2017-08-17T12:59:42.894Z,46.80
2017-08-17T13:02:13.724Z,38.00
2017-08-17T13:04:44.262Z,44.53
2017-08-17T13:07:13.917Z,45.10
2017-08-17T13:09:43.498Z,48.10
2017-08-17T13:12:14.437Z,35.07
2017-08-17T13:14:43.578Z,40.83
2017-08-17T13:17:12.454Z,38.60
2017-08-17T13:19:41.848Z,50.87
2017-08-17T13:22:12.114Z,34.67
2017-08-17T13:24:42.930Z,39.97
2017-08-17T13:27:13.791Z,43.50
2017-08-17T13:29:42.882Z,41.83
2017-08-17T13:32:12.170Z,49.03
2017-08-17T13:34:45.916Z,40.40
2017-08-17T13:37:14.910Z,42.53
2017-08-17T13:39:44.522Z,55.83
2017-08-17T13:42:15.766Z,40.90
2017-08-17T13:44:44.405Z,40.60
2017-08-17T13:47:14.130Z,45.07
2017-08-17T13:49:44.239Z,46.40
2017-08-17T13:52:14.811Z,44.90
2017-08-17T13:54:44.978Z,41.63
2017-08-17T13:57:16.202Z,42.47
2017-08-17T13:59:44.351Z,44.83
2017-08-17T14:02:15.302Z,36.17
2017-08-17T14:04:44.605Z,38.33
2017-08-17T14:07:14.572Z,41.20
2017-08-17T14:09:46.186Z,48.87
2017-08-17T14:12:15.385Z,44.03
2017-08-17T14:14:44.330Z,38.73
2017-08-17T14:17:15.346Z,34.23
2017-08-17T14:19:44.207Z,41.50
2017-08-17T14:22:13.534Z,48.50
2017-08-17T14:24:44.267Z,36.90
2017-08-17T14:27:13.706Z,36.50
2017-08-17T14:29:42.038Z,36.17
2017-08-17T14:32:10.525Z,47.03
2017-08-17T14:34:39.375Z,34.77
2017-08-17T14:37:09.882Z,46.77
2017-08-17T14:39:39.547Z,45.67
2017-08-17T14:42:08.371Z,40.67
2017-08-17T14:44:38.970Z,57.17
2017-08-17T14:47:08.207Z,36.30
2017-08-17T14:49:38.482Z,46.23
2017-08-17T14:52:12.029Z,38.30
2017-08-17T14:54:42.747Z,42.00
2017-08-17T14:57:12.053Z,44.53
2017-08-17T14:59:42.983Z,31.20
2017-08-17T15:02:13.115Z,39.07
2017-08-17T15:04:44.627Z,42.30
2017-08-17T15:07:14.901Z,45.87
2017-08-17T15:09:44.570Z,44.43
2017-08-17T15:12:14.582Z,38.30
2017-08-17T15:14:44.163Z,39.17
2017-08-17T15:17:12.944Z,51.37
2017-08-17T15:19:43.537Z,39.00
2017-08-17T15:22:14.282Z,44.87
2017-08-17T15:24:43.083Z,41.97
2017-08-17T15:27:12.578Z,45.77
2017-08-17T15:29:40.701Z,36.90
2017-08-17T15:32:09.255Z,72.23
2017-08-17T15:34:39.202Z,42.83
2017-08-17T15:37:07.806Z,50.37
2017-08-17T15:39:37.346Z,42.33
2017-08-17T15:42:08.071Z,50.07
2017-08-17T15:44:36.427Z,50.10
2017-08-17T15:47:05.906Z,41.00
2017-08-17T15:49:34.590Z,41.10
2017-08-17T15:52:04.002Z,60.20
2017-08-17T15:54:33.342Z,46.07
2017-08-17T15:57:02.362Z,42.03
2017-08-17T15:59:31.594Z,49.00
2017-08-17T16:02:01.235Z,47.43
2017-08-17T16:04:29.825Z,48.07
2017-08-17T16:06:59.122Z,45.63
2017-08-17T16:09:29.159Z,67.57
2017-08-17T16:11:58.986Z,53.60
2017-08-17T16:14:29.494Z,46.60
2017-08-17T16:16:58.207Z,62.63
2017-08-17T16:19:28.168Z,43.73
2017-08-17T16:21:58.523Z,45.93
2017-08-17T16:24:27.582Z,52.63
2017-08-17T16:26:56.718Z,42.80
2017-08-17T16:29:26.583Z,42.63
2017-08-17T16:31:57.618Z,55.07
2017-08-17T16:34:25.826Z,53.10
2017-08-17T16:37:51.342Z,46.13
2017-08-17T16:40:19.883Z,60.20
2017-08-17T16:42:48.082Z,64.00
2017-08-17T16:45:16.198Z,49.53
2017-08-17T16:47:44.210Z,52.90
2017-08-17T16:50:12.230Z,52.70
2017-08-17T16:52:40.355Z,49.80
2017-08-17T16:55:09.002Z,51.23
2017-08-17T16:57:37.017Z,51.20
2017-08-17T17:00:05.690Z,60.67
2017-08-17T17:02:34.443Z,55.60
2017-08-17T17:05:02.921Z,42.80
2017-08-17T17:07:31.722Z,61.80
2017-08-17T17:10:00.335Z,55.37
2017-08-17T17:12:29.059Z,54.97
2017-08-17T17:14:57.554Z,69.87
2017-08-17T17:17:26.062Z,57.90
2017-08-17T17:19:54.078Z,58.13
2017-08-17T17:22:23.638Z,44.07
2017-08-17T17:24:52.390Z,60.37
2017-08-17T17:27:20.798Z,55.07
2017-08-17T17:29:49.498Z,54.60
2017-08-17T17:32:18.119Z,61.33
2017-08-17T17:34:46.760Z,51.10
2017-08-17T17:37:15.420Z,62.50
2017-08-17T17:39:43.438Z,75.87
2017-08-17T17:42:11.896Z,52.90
2017-08-17T17:44:40.631Z,54.13
2017-08-17T17:47:09.211Z,60.87
2017-08-17T17:49:37.859Z,51.03
2017-08-17T17:52:06.420Z,48.70
2017-08-17T17:54:34.943Z,51.63
2017-08-17T17:57:03.586Z,50.53
2017-08-17T17:59:32.066Z,53.70
2017-08-17T18:02:00.490Z,53.00
2017-08-17T18:04:29.179Z,59.87
2017-08-17T18:06:58.167Z,54.77
2017-08-17T18:09:27.162Z,58.50
2017-08-17T18:11:55.919Z,62.87
2017-08-17T18:14:24.434Z,59.23
2017-08-17T18:16:53.022Z,59.53
2017-08-17T18:19:21.045Z,61.47
2017-08-17T18:21:50.598Z,55.03
2017-08-17T18:24:19.350Z,61.53
2017-08-17T18:26:47.752Z,67.80
2017-08-17T18:29:16.562Z,53.73
2017-08-17T18:31:45.174Z,60.10
2017-08-17T18:47:16.765Z,52.43
2017-08-17T18:49:45.283Z,56.27
2017-08-17T18:52:13.890Z,57.50
2017-08-17T18:54:42.414Z,75.20
2017-08-17T18:57:10.929Z,63.40
2017-08-17T18:59:39.515Z,67.53
2017-08-17T19:02:08.407Z,54.40
2017-08-17T19:04:37.185Z,68.67
2017-08-17T19:07:05.711Z,64.07
2017-08-17T19:09:34.575Z,51.73
2017-08-17T19:12:03.182Z,61.43
2017-08-17T19:14:31.227Z,55.07
2017-08-17T19:17:00.018Z,55.77
2017-08-17T19:19:28.702Z,61.67
2017-08-17T19:21:57.455Z,65.93
2017-08-17T19:24:25.934Z,83.93
2017-08-17T19:26:55.579Z,55.70
2017-08-17T19:29:23.595Z,67.87
2017-08-17T19:31:52.380Z,63.50
2017-08-17T19:34:21.024Z,67.43
2017-08-17T19:36:49.499Z,67.00
2017-08-17T19:39:18.307Z,56.23
2017-08-17T19:41:46.919Z,59.93
2017-08-17T19:44:15.638Z,71.83
2017-08-17T19:46:45.187Z,57.67
2017-08-17T19:49:13.877Z,70.37
2017-08-17T19:51:42.622Z,69.10
2017-08-17T19:54:11.118Z,66.90
2017-08-17T19:56:39.151Z,57.63
2017-08-17T19:59:07.578Z,51.07
2017-08-17T20:01:36.400Z,58.80
2017-08-17T20:04:05.006Z,58.80
2017-08-17T20:06:33.649Z,52.17
2017-08-17T20:09:02.390Z,77.73
2017-08-17T20:11:31.818Z,72.03
2017-08-17T20:14:00.910Z,56.93
2017-08-17T20:16:29.806Z,59.60
2017-08-17T20:18:58.202Z,54.73
2017-08-17T20:21:26.810Z,54.23
2017-08-17T20:23:55.627Z,57.00
2017-08-17T20:26:24.390Z,81.67
2017-08-17T20:28:53.062Z,65.60
2017-08-17T20:31:21.170Z,67.37
2017-08-17T20:33:49.899Z,75.37
2017-08-17T20:36:18.294Z,82.93
2017-08-17T20:38:46.903Z,60.77
2017-08-17T20:41:15.622Z,54.73
2017-08-17T20:43:43.648Z,48.40
2017-08-17T20:46:12.458Z,58.07
2017-08-17T20:48:41.139Z,61.23
2017-08-17T20:51:09.818Z,58.93
2017-08-17T20:53:38.406Z,55.70
2017-08-17T20:56:06.994Z,53.67
2017-08-17T20:58:35.578Z,57.27
2017-08-17T21:01:04.430Z,58.20
2017-08-17T21:03:33.779Z,53.10
2017-08-17T21:06:02.458Z,49.87
2017-08-17T21:08:31.090Z,53.13
2017-08-17T21:11:00.766Z,55.17
2017-08-17T21:13:29.442Z,57.63
2017-08-17T21:15:58.294Z,47.13
2017-08-17T21:18:26.694Z,61.57
2017-08-17T21:20:55.319Z,54.40
2017-08-17T21:23:24.255Z,53.00
2017-08-17T21:25:52.562Z,48.47
2017-08-17T21:28:21.168Z,61.17
2017-08-17T21:30:49.952Z,47.23
2017-08-17T21:33:18.648Z,47.50
2017-08-17T21:35:47.151Z,55.13
2017-08-17T21:38:15.283Z,59.87
2017-08-17T21:40:43.298Z,47.97
2017-08-17T21:43:11.846Z,36.70
2017-08-17T21:45:40.398Z,50.43
2017-08-17T21:48:08.923Z,55.43
2017-08-17T21:50:37.601Z,50.33
2017-08-17T21:53:06.458Z,48.33
2017-08-17T21:55:34.854Z,53.70
2017-08-17T21:58:03.363Z,54.20
2017-08-17T22:00:32.178Z,52.20
2017-08-17T22:03:00.898Z,63.00
2017-08-17T22:05:29.294Z,58.33
2017-08-17T22:07:58.038Z,53.67
2017-08-17T22:10:26.897Z,75.73
2017-08-17T22:12:55.583Z,47.17
2017-08-17T22:15:23.694Z,52.70
2017-08-17T22:17:51.725Z,66.73
2017-08-17T22:20:19.742Z,57.07
2017-08-17T22:22:48.515Z,51.30
2017-08-17T22:25:16.903Z,68.17
2017-08-17T22:27:44.928Z,56.90
2017-08-17T22:30:13.496Z,61.23
2017-08-17T22:32:42.006Z,56.97
2017-08-17T22:35:10.695Z,55.77
2017-08-17T22:37:39.692Z,63.17
2017-08-17T22:40:08.366Z,57.43
2017-08-17T22:42:36.370Z,45.00
2017-08-17T22:45:04.490Z,55.30
2017-08-17T22:47:32.498Z,64.87
2017-08-17T22:50:01.014Z,48.10
2017-08-17T22:52:30.233Z,48.43
2017-08-17T22:54:59.568Z,58.83
2017-08-17T22:57:27.586Z,66.10
2017-08-17T22:59:56.438Z,56.03
2017-08-17T23:02:24.987Z,62.13
2017-08-17T23:04:53.515Z,56.63
2017-08-17T23:07:22.297Z,55.37
2017-08-17T23:09:50.843Z,50.27
2017-08-17T23:12:19.502Z,45.63
2017-08-17T23:14:48.163Z,58.97
2017-08-17T23:17:16.738Z,53.77
2017-08-17T23:19:45.314Z,48.60
2017-08-17T23:22:13.943Z,50.50
2017-08-17T23:24:42.422Z,60.07
2017-08-17T23:27:11.171Z,57.40
2017-08-17T23:29:39.727Z,53.43
2017-08-17T23:32:08.250Z,45.70
2017-08-17T23:34:36.902Z,56.67
2017-08-17T23:37:05.464Z,56.73
2017-08-17T23:39:33.470Z,53.13
2017-08-17T23:42:02.168Z,54.87
2017-08-17T23:44:30.391Z,55.70
2017-08-17T23:46:58.937Z,62.27
2017-08-17T23:49:27.405Z,62.97
2017-08-17T23:51:56.142Z,58.17
2017-08-17T23:54:24.722Z,41.00
2017-08-17T23:56:53.473Z,50.07
2017-08-17T23:59:22.052Z,54.70
